sensor_id;sensor_type;location;lat;lon;timestamp;P1;durP1;ratioP1;P2;durP2;ratioP2
16288;SDS011;26089;43.538;5.250;2023-05-24T00:00:08;23.40;;;17.73;;
16288;SDS011;26089;43.538;5.250;2023-05-24T00:02:37;20.90;;;17.73;;
16288;SDS011;26089;43.538;5.250;2023-05-24T00:05:06;18.80;;;16.80;;
16288;SDS011;26089;43.538;5.250;2023-05-24T00:07:35;19.97;;;17.87;;
16288;SDS011;26089;43.538;5.250;2023-05-24T00:10:02;21.83;;;17.80;;
16288;SDS011;26089;43.538;5.250;2023-05-24T00:12:29;21.23;;;17.17;;
16288;SDS011;26089;43.538;5.250;2023-05-24T00:14:56;20.00;;;17.77;;
16288;SDS011;26089;43.538;5.250;2023-05-24T00:17:23;19.47;;;17.47;;
16288;SDS011;26089;43.538;5.250;2023-05-24T00:19:50;19.50;;;17.27;;
16288;SDS011;26089;43.538;5.250;2023-05-24T00:22:17;19.03;;;17.13;;
16288;SDS011;26089;43.538;5.250;2023-05-24T00:24:47;23.00;;;17.70;;
16288;SDS011;26089;43.538;5.250;2023-05-24T00:27:14;18.17;;;16.23;;
16288;SDS011;26089;43.538;5.250;2023-05-24T00:29:41;20.53;;;16.97;;
16288;SDS011;26089;43.538;5.250;2023-05-24T00:32:08;21.07;;;17.63;;
16288;SDS011;26089;43.538;5.250;2023-05-24T00:34:35;21.97;;;17.20;;
16288;SDS011;26089;43.538;5.250;2023-05-24T00:37:02;22.60;;;17.43;;
16288;SDS011;26089;43.538;5.250;2023-05-24T00:39:29;22.63;;;17.37;;
16288;SDS011;26089;43.538;5.250;2023-05-24T00:41:57;21.27;;;18.00;;
16288;SDS011;26089;43.538;5.250;2023-05-24T00:44:24;19.77;;;17.00;;
16288;SDS011;26089;43.538;5.250;2023-05-24T00:46:52;19.23;;;17.20;;
16288;SDS011;26089;43.538;5.250;2023-05-24T00:49:19;24.20;;;17.50;;
16288;SDS011;26089;43.538;5.250;2023-05-24T00:51:46;20.57;;;17.33;;
16288;SDS011;26089;43.538;5.250;2023-05-24T00:54:14;19.00;;;16.97;;
16288;SDS011;26089;43.538;5.250;2023-05-24T00:56:41;20.47;;;17.50;;
16288;SDS011;26089;43.538;5.250;2023-05-24T00:59:10;22.43;;;19.23;;
16288;SDS011;26089;43.538;5.250;2023-05-24T01:01:37;21.47;;;17.13;;
16288;SDS011;26089;43.538;5.250;2023-05-24T01:04:05;19.03;;;15.70;;
16288;SDS011;26089;43.538;5.250;2023-05-24T01:06:35;19.70;;;17.60;;
16288;SDS011;26089;43.538;5.250;2023-05-24T01:09:25;19.63;;;17.53;;
16288;SDS011;26089;43.538;5.250;2023-05-24T01:12:00;20.17;;;16.83;;
16288;SDS011;26089;43.538;5.250;2023-05-24T01:14:37;18.97;;;16.57;;
16288;SDS011;26089;43.538;5.250;2023-05-24T01:17:19;20.10;;;16.57;;
16288;SDS011;26089;43.538;5.250;2023-05-24T01:19:55;18.13;;;16.23;;
16288;SDS011;26089;43.538;5.250;2023-05-24T01:25:18;18.57;;;16.10;;
16288;SDS011;26089;43.538;5.250;2023-05-24T01:27:54;17.57;;;15.73;;
16288;SDS011;26089;43.538;5.250;2023-05-24T01:30:21;18.90;;;15.90;;
16288;SDS011;26089;43.538;5.250;2023-05-24T01:32:48;18.17;;;16.07;;
16288;SDS011;26089;43.538;5.250;2023-05-24T01:35:15;18.93;;;16.07;;
16288;SDS011;26089;43.538;5.250;2023-05-24T01:37:42;17.57;;;15.67;;
16288;SDS011;26089;43.538;5.250;2023-05-24T01:40:10;18.30;;;16.43;;
16288;SDS011;26089;43.538;5.250;2023-05-24T01:42:39;20.80;;;16.67;;
16288;SDS011;26089;43.538;5.250;2023-05-24T01:45:13;24.83;;;16.70;;
16288;SDS011;26089;43.538;5.250;2023-05-24T01:47:59;17.00;;;15.13;;
16288;SDS011;26089;43.538;5.250;2023-05-24T01:50:30;18.90;;;17.00;;
16288;SDS011;26089;43.538;5.250;2023-05-24T01:53:01;22.47;;;16.60;;
16288;SDS011;26089;43.538;5.250;2023-05-24T01:55:29;19.33;;;16.30;;
16288;SDS011;26089;43.538;5.250;2023-05-24T01:57:59;20.33;;;18.17;;
16288;SDS011;26089;43.538;5.250;2023-05-24T02:00:30;18.90;;;16.87;;
16288;SDS011;26089;43.538;5.250;2023-05-24T02:02:58;20.57;;;17.13;;
16288;SDS011;26089;43.538;5.250;2023-05-24T02:05:26;19.80;;;17.70;;
16288;SDS011;26089;43.538;5.250;2023-05-24T02:07:53;20.33;;;17.17;;
16288;SDS011;26089;43.538;5.250;2023-05-24T02:10:20;21.40;;;17.53;;
16288;SDS011;26089;43.538;5.250;2023-05-24T02:12:47;19.57;;;17.37;;
16288;SDS011;26089;43.538;5.250;2023-05-24T02:15:14;20.67;;;17.00;;
16288;SDS011;26089;43.538;5.250;2023-05-24T02:17:42;20.10;;;17.93;;
16288;SDS011;26089;43.538;5.250;2023-05-24T02:20:10;20.43;;;17.13;;
16288;SDS011;26089;43.538;5.250;2023-05-24T02:22:38;19.97;;;17.57;;
16288;SDS011;26089;43.538;5.250;2023-05-24T02:25:05;17.97;;;15.93;;
16288;SDS011;26089;43.538;5.250;2023-05-24T02:27:33;20.43;;;17.27;;
16288;SDS011;26089;43.538;5.250;2023-05-24T02:30:00;17.30;;;15.43;;
16288;SDS011;26089;43.538;5.250;2023-05-24T02:32:27;20.17;;;16.30;;
16288;SDS011;26089;43.538;5.250;2023-05-24T02:34:55;21.10;;;17.50;;
16288;SDS011;26089;43.538;5.250;2023-05-24T02:37:23;22.17;;;17.03;;
16288;SDS011;26089;43.538;5.250;2023-05-24T02:39:50;17.20;;;15.40;;
16288;SDS011;26089;43.538;5.250;2023-05-24T02:42:17;20.37;;;16.43;;
16288;SDS011;26089;43.538;5.250;2023-05-24T02:44:44;20.03;;;16.33;;
16288;SDS011;26089;43.538;5.250;2023-05-24T02:47:13;20.77;;;16.30;;
16288;SDS011;26089;43.538;5.250;2023-05-24T02:49:40;20.23;;;16.53;;
16288;SDS011;26089;43.538;5.250;2023-05-24T02:52:08;18.30;;;16.00;;
16288;SDS011;26089;43.538;5.250;2023-05-24T02:54:35;20.20;;;16.87;;
16288;SDS011;26089;43.538;5.250;2023-05-24T02:57:02;17.40;;;15.60;;
16288;SDS011;26089;43.538;5.250;2023-05-24T02:59:30;17.73;;;15.70;;
16288;SDS011;26089;43.538;5.250;2023-05-24T03:01:58;17.17;;;15.37;;
16288;SDS011;26089;43.538;5.250;2023-05-24T03:04:25;19.23;;;14.83;;
16288;SDS011;26089;43.538;5.250;2023-05-24T03:06:52;19.07;;;13.90;;
16288;SDS011;26089;43.538;5.250;2023-05-24T03:09:20;14.87;;;13.27;;
16288;SDS011;26089;43.538;5.250;2023-05-24T03:11:47;15.03;;;13.40;;
16288;SDS011;26089;43.538;5.250;2023-05-24T03:14:15;14.43;;;12.93;;
16288;SDS011;26089;43.538;5.250;2023-05-24T03:16:44;16.03;;;13.23;;
16288;SDS011;26089;43.538;5.250;2023-05-24T03:19:11;14.60;;;12.50;;
16288;SDS011;26089;43.538;5.250;2023-05-24T03:21:38;14.97;;;12.40;;
16288;SDS011;26089;43.538;5.250;2023-05-24T03:24:05;14.50;;;13.00;;
16288;SDS011;26089;43.538;5.250;2023-05-24T03:26:34;13.17;;;11.87;;
16288;SDS011;26089;43.538;5.250;2023-05-24T03:29:01;16.20;;;12.03;;
16288;SDS011;26089;43.538;5.250;2023-05-24T03:31:28;14.10;;;12.13;;
16288;SDS011;26089;43.538;5.250;2023-05-24T03:33:55;15.70;;;11.50;;
16288;SDS011;26089;43.538;5.250;2023-05-24T03:36:22;13.97;;;12.20;;
16288;SDS011;26089;43.538;5.250;2023-05-24T03:38:50;12.63;;;11.33;;
16288;SDS011;26089;43.538;5.250;2023-05-24T03:41:17;12.90;;;11.60;;
16288;SDS011;26089;43.538;5.250;2023-05-24T03:43:45;12.47;;;10.97;;
16288;SDS011;26089;43.538;5.250;2023-05-24T03:46:12;12.53;;;11.20;;
16288;SDS011;26089;43.538;5.250;2023-05-24T03:48:39;14.90;;;12.17;;
16288;SDS011;26089;43.538;5.250;2023-05-24T03:51:06;12.70;;;11.13;;
16288;SDS011;26089;43.538;5.250;2023-05-24T03:53:34;12.47;;;11.27;;
16288;SDS011;26089;43.538;5.250;2023-05-24T03:56:00;12.73;;;11.43;;
16288;SDS011;26089;43.538;5.250;2023-05-24T03:58:27;13.37;;;11.70;;
16288;SDS011;26089;43.538;5.250;2023-05-24T04:00:56;13.67;;;11.23;;
16288;SDS011;26089;43.538;5.250;2023-05-24T04:03:23;14.83;;;10.97;;
16288;SDS011;26089;43.538;5.250;2023-05-24T04:05:51;15.57;;;11.20;;
16288;SDS011;26089;43.538;5.250;2023-05-24T04:08:18;11.37;;;10.17;;
16288;SDS011;26089;43.538;5.250;2023-05-24T04:10:45;12.90;;;11.47;;
16288;SDS011;26089;43.538;5.250;2023-05-24T04:13:12;11.70;;;10.50;;
16288;SDS011;26089;43.538;5.250;2023-05-24T04:15:39;15.83;;;10.87;;
16288;SDS011;26089;43.538;5.250;2023-05-24T04:18:07;13.53;;;10.60;;
16288;SDS011;26089;43.538;5.250;2023-05-24T04:20:34;16.17;;;10.60;;
16288;SDS011;26089;43.538;5.250;2023-05-24T04:23:01;15.43;;;11.73;;
16288;SDS011;26089;43.538;5.250;2023-05-24T04:25:28;11.70;;;10.50;;
16288;SDS011;26089;43.538;5.250;2023-05-24T04:27:57;16.03;;;12.37;;
16288;SDS011;26089;43.538;5.250;2023-05-24T04:30:24;15.47;;;12.80;;
16288;SDS011;26089;43.538;5.250;2023-05-24T04:32:53;13.90;;;12.57;;
16288;SDS011;26089;43.538;5.250;2023-05-24T04:35:22;16.10;;;13.20;;
16288;SDS011;26089;43.538;5.250;2023-05-24T04:37:49;13.87;;;12.33;;
16288;SDS011;26089;43.538;5.250;2023-05-24T04:40:16;15.27;;;12.40;;
16288;SDS011;26089;43.538;5.250;2023-05-24T04:42:44;13.90;;;11.40;;
16288;SDS011;26089;43.538;5.250;2023-05-24T04:45:11;11.57;;;10.43;;
16288;SDS011;26089;43.538;5.250;2023-05-24T04:47:39;12.80;;;11.03;;
16288;SDS011;26089;43.538;5.250;2023-05-24T04:50:06;11.50;;;10.30;;
16288;SDS011;26089;43.538;5.250;2023-05-24T04:52:35;12.30;;;10.43;;
16288;SDS011;26089;43.538;5.250;2023-05-24T04:55:02;14.10;;;11.67;;
16288;SDS011;26089;43.538;5.250;2023-05-24T04:57:29;13.13;;;11.73;;
16288;SDS011;26089;43.538;5.250;2023-05-24T04:59:57;12.60;;;10.40;;
16288;SDS011;26089;43.538;5.250;2023-05-24T05:02:24;12.63;;;11.30;;
16288;SDS011;26089;43.538;5.250;2023-05-24T05:04:51;12.43;;;10.33;;
16288;SDS011;26089;43.538;5.250;2023-05-24T05:07:18;13.50;;;10.57;;
16288;SDS011;26089;43.538;5.250;2023-05-24T05:09:46;10.87;;;9.33;;
16288;SDS011;26089;43.538;5.250;2023-05-24T05:12:13;13.70;;;10.00;;
16288;SDS011;26089;43.538;5.250;2023-05-24T05:14:41;14.33;;;10.43;;
16288;SDS011;26089;43.538;5.250;2023-05-24T05:17:08;11.10;;;9.93;;
16288;SDS011;26089;43.538;5.250;2023-05-24T05:19:35;13.87;;;11.07;;
16288;SDS011;26089;43.538;5.250;2023-05-24T05:22:02;12.50;;;10.60;;
16288;SDS011;26089;43.538;5.250;2023-05-24T05:24:29;10.27;;;9.23;;
16288;SDS011;26089;43.538;5.250;2023-05-24T05:26:57;11.90;;;10.37;;
16288;SDS011;26089;43.538;5.250;2023-05-24T05:29:24;11.63;;;10.03;;
16288;SDS011;26089;43.538;5.250;2023-05-24T05:31:51;11.60;;;10.40;;
16288;SDS011;26089;43.538;5.250;2023-05-24T05:34:18;11.77;;;10.47;;
16288;SDS011;26089;43.538;5.250;2023-05-24T05:36:45;10.83;;;9.73;;
16288;SDS011;26089;43.538;5.250;2023-05-24T05:39:12;10.57;;;9.47;;
16288;SDS011;26089;43.538;5.250;2023-05-24T05:41:39;10.10;;;9.20;;
16288;SDS011;26089;43.538;5.250;2023-05-24T05:44:09;10.47;;;9.37;;
16288;SDS011;26089;43.538;5.250;2023-05-24T05:46:37;10.73;;;9.63;;
16288;SDS011;26089;43.538;5.250;2023-05-24T05:49:05;12.47;;;10.40;;
16288;SDS011;26089;43.538;5.250;2023-05-24T05:51:33;12.10;;;9.70;;
16288;SDS011;26089;43.538;5.250;2023-05-24T05:54:01;12.27;;;9.77;;
16288;SDS011;26089;43.538;5.250;2023-05-24T05:56:28;11.70;;;9.73;;
16288;SDS011;26089;43.538;5.250;2023-05-24T05:58:55;11.00;;;9.87;;
16288;SDS011;26089;43.538;5.250;2023-05-24T06:01:23;10.93;;;9.70;;
16288;SDS011;26089;43.538;5.250;2023-05-24T06:03:50;9.87;;;8.87;;
16288;SDS011;26089;43.538;5.250;2023-05-24T06:06:17;12.67;;;9.47;;
16288;SDS011;26089;43.538;5.250;2023-05-24T06:08:44;10.93;;;9.30;;
16288;SDS011;26089;43.538;5.250;2023-05-24T06:11:11;11.50;;;9.13;;
16288;SDS011;26089;43.538;5.250;2023-05-24T06:13:38;9.97;;;8.97;;
16288;SDS011;26089;43.538;5.250;2023-05-24T06:16:05;10.63;;;9.57;;
16288;SDS011;26089;43.538;5.250;2023-05-24T06:18:35;10.70;;;9.70;;
16288;SDS011;26089;43.538;5.250;2023-05-24T06:21:02;11.90;;;9.23;;
16288;SDS011;26089;43.538;5.250;2023-05-24T06:23:29;11.00;;;9.10;;
16288;SDS011;26089;43.538;5.250;2023-05-24T06:25:57;11.10;;;8.93;;
16288;SDS011;26089;43.538;5.250;2023-05-24T06:28:25;12.57;;;9.20;;
16288;SDS011;26089;43.538;5.250;2023-05-24T06:30:52;10.57;;;9.40;;
16288;SDS011;26089;43.538;5.250;2023-05-24T06:33:19;10.00;;;9.00;;
16288;SDS011;26089;43.538;5.250;2023-05-24T06:35:48;9.63;;;8.73;;
16288;SDS011;26089;43.538;5.250;2023-05-24T06:38:15;9.63;;;8.73;;
16288;SDS011;26089;43.538;5.250;2023-05-24T06:40:42;12.80;;;8.73;;
16288;SDS011;26089;43.538;5.250;2023-05-24T06:43:09;9.57;;;8.73;;
16288;SDS011;26089;43.538;5.250;2023-05-24T06:45:36;9.43;;;8.53;;
16288;SDS011;26089;43.538;5.250;2023-05-24T06:48:03;9.30;;;8.40;;
16288;SDS011;26089;43.538;5.250;2023-05-24T06:50:31;9.40;;;8.40;;
16288;SDS011;26089;43.538;5.250;2023-05-24T06:52:59;9.87;;;8.57;;
16288;SDS011;26089;43.538;5.250;2023-05-24T06:55:27;8.37;;;7.60;;
16288;SDS011;26089;43.538;5.250;2023-05-24T06:57:54;8.90;;;8.00;;
16288;SDS011;26089;43.538;5.250;2023-05-24T07:00:21;9.17;;;7.90;;
16288;SDS011;26089;43.538;5.250;2023-05-24T07:02:48;8.40;;;7.60;;
16288;SDS011;26089;43.538;5.250;2023-05-24T07:05:15;8.70;;;7.63;;
16288;SDS011;26089;43.538;5.250;2023-05-24T07:07:43;8.37;;;7.13;;
16288;SDS011;26089;43.538;5.250;2023-05-24T07:10:11;8.43;;;7.63;;
16288;SDS011;26089;43.538;5.250;2023-05-24T07:12:38;8.03;;;7.33;;
16288;SDS011;26089;43.538;5.250;2023-05-24T07:15:06;9.83;;;7.50;;
16288;SDS011;26089;43.538;5.250;2023-05-24T07:17:33;11.20;;;8.13;;
16288;SDS011;26089;43.538;5.250;2023-05-24T07:20:01;10.07;;;8.40;;
16288;SDS011;26089;43.538;5.250;2023-05-24T07:22:30;8.83;;;8.03;;
16288;SDS011;26089;43.538;5.250;2023-05-24T07:24:57;8.90;;;8.00;;
16288;SDS011;26089;43.538;5.250;2023-05-24T07:27:25;8.63;;;7.77;;
16288;SDS011;26089;43.538;5.250;2023-05-24T07:29:52;9.60;;;8.53;;
16288;SDS011;26089;43.538;5.250;2023-05-24T07:32:20;8.80;;;8.00;;
16288;SDS011;26089;43.538;5.250;2023-05-24T07:34:47;11.33;;;8.40;;
16288;SDS011;26089;43.538;5.250;2023-05-24T07:37:14;10.57;;;8.20;;
16288;SDS011;26089;43.538;5.250;2023-05-24T07:39:41;9.17;;;8.30;;
16288;SDS011;26089;43.538;5.250;2023-05-24T07:42:08;8.43;;;7.53;;
16288;SDS011;26089;43.538;5.250;2023-05-24T07:44:37;9.87;;;7.67;;
16288;SDS011;26089;43.538;5.250;2023-05-24T07:47:04;8.77;;;7.83;;
16288;SDS011;26089;43.538;5.250;2023-05-24T07:49:31;8.30;;;7.40;;
16288;SDS011;26089;43.538;5.250;2023-05-24T07:51:58;8.73;;;7.93;;
16288;SDS011;26089;43.538;5.250;2023-05-24T07:54:25;9.07;;;8.23;;
16288;SDS011;26089;43.538;5.250;2023-05-24T07:56:52;8.87;;;8.00;;
16288;SDS011;26089;43.538;5.250;2023-05-24T07:59:19;9.10;;;8.30;;
16288;SDS011;26089;43.538;5.250;2023-05-24T08:01:48;9.30;;;8.50;;
16288;SDS011;26089;43.538;5.250;2023-05-24T08:04:15;10.77;;;9.07;;
16288;SDS011;26089;43.538;5.250;2023-05-24T08:06:42;10.23;;;9.23;;
16288;SDS011;26089;43.538;5.250;2023-05-24T08:09:10;17.03;;;9.20;;
16288;SDS011;26089;43.538;5.250;2023-05-24T08:11:37;10.13;;;9.20;;
16288;SDS011;26089;43.538;5.250;2023-05-24T08:14:05;9.30;;;8.50;;
16288;SDS011;26089;43.538;5.250;2023-05-24T08:16:32;9.63;;;8.77;;
16288;SDS011;26089;43.538;5.250;2023-05-24T08:19:01;9.93;;;8.93;;
16288;SDS011;26089;43.538;5.250;2023-05-24T08:21:28;11.60;;;8.80;;
16288;SDS011;26089;43.538;5.250;2023-05-24T08:23:55;9.57;;;8.67;;
16288;SDS011;26089;43.538;5.250;2023-05-24T08:26:24;9.33;;;8.23;;
16288;SDS011;26089;43.538;5.250;2023-05-24T08:28:51;9.50;;;8.63;;
16288;SDS011;26089;43.538;5.250;2023-05-24T08:31:17;10.07;;;9.17;;
16288;SDS011;26089;43.538;5.250;2023-05-24T08:33:44;9.67;;;8.77;;
16288;SDS011;26089;43.538;5.250;2023-05-24T08:36:15;10.53;;;8.73;;
16288;SDS011;26089;43.538;5.250;2023-05-24T08:38:42;10.90;;;9.17;;
16288;SDS011;26089;43.538;5.250;2023-05-24T08:41:09;10.27;;;9.30;;
16288;SDS011;26089;43.538;5.250;2023-05-24T08:43:36;11.10;;;9.20;;
16288;SDS011;26089;43.538;5.250;2023-05-24T08:46:04;10.70;;;9.40;;
16288;SDS011;26089;43.538;5.250;2023-05-24T08:48:32;10.20;;;9.07;;
16288;SDS011;26089;43.538;5.250;2023-05-24T08:51:03;10.53;;;9.43;;
16288;SDS011;26089;43.538;5.250;2023-05-24T08:53:32;9.93;;;9.03;;
16288;SDS011;26089;43.538;5.250;2023-05-24T08:56:02;9.67;;;8.77;;
16288;SDS011;26089;43.538;5.250;2023-05-24T08:58:30;10.37;;;9.37;;
16288;SDS011;26089;43.538;5.250;2023-05-24T09:00:57;10.87;;;9.23;;
16288;SDS011;26089;43.538;5.250;2023-05-24T09:03:25;10.57;;;9.50;;
16288;SDS011;26089;43.538;5.250;2023-05-24T09:05:53;11.30;;;10.10;;
16288;SDS011;26089;43.538;5.250;2023-05-24T09:08:20;10.20;;;9.10;;
16288;SDS011;26089;43.538;5.250;2023-05-24T09:10:49;11.40;;;10.27;;
16288;SDS011;26089;43.538;5.250;2023-05-24T09:13:16;10.50;;;9.47;;
16288;SDS011;26089;43.538;5.250;2023-05-24T09:15:44;12.10;;;9.77;;
16288;SDS011;26089;43.538;5.250;2023-05-24T09:18:11;10.07;;;9.07;;
16288;SDS011;26089;43.538;5.250;2023-05-24T09:20:38;9.40;;;8.50;;
16288;SDS011;26089;43.538;5.250;2023-05-24T09:23:05;10.23;;;9.15;;
16288;SDS011;26089;43.538;5.250;2023-05-24T09:25:33;9.90;;;9.00;;
16288;SDS011;26089;43.538;5.250;2023-05-24T09:28:05;10.35;;;9.25;;
16288;SDS011;26089;43.538;5.250;2023-05-24T09:30:33;10.35;;;9.35;;
16288;SDS011;26089;43.538;5.250;2023-05-24T09:33:01;11.52;;;10.38;;
16288;SDS011;26089;43.538;5.250;2023-05-24T09:35:29;10.50;;;9.38;;
16288;SDS011;26089;43.538;5.250;2023-05-24T09:37:56;11.52;;;10.23;;
16288;SDS011;26089;43.538;5.250;2023-05-24T09:40:25;10.43;;;9.32;;
16288;SDS011;26089;43.538;5.250;2023-05-24T09:43:02;11.90;;;10.70;;
16288;SDS011;26089;43.538;5.250;2023-05-24T09:45:37;11.88;;;9.93;;
16288;SDS011;26089;43.538;5.250;2023-05-24T09:48:08;12.13;;;10.38;;
16288;SDS011;26089;43.538;5.250;2023-05-24T09:50:36;11.82;;;10.30;;
16288;SDS011;26089;43.538;5.250;2023-05-24T09:53:03;13.82;;;10.70;;
16288;SDS011;26089;43.538;5.250;2023-05-24T09:55:30;11.23;;;10.20;;
16288;SDS011;26089;43.538;5.250;2023-05-24T09:58:02;10.45;;;9.43;;
16288;SDS011;26089;43.538;5.250;2023-05-24T10:00:34;11.82;;;9.52;;
16288;SDS011;26089;43.538;5.250;2023-05-24T10:03:04;10.45;;;9.35;;
16288;SDS011;26089;43.538;5.250;2023-05-24T10:05:32;11.95;;;10.75;;
16288;SDS011;26089;43.538;5.250;2023-05-24T10:07:59;11.23;;;10.13;;
16288;SDS011;26089;43.538;5.250;2023-05-24T10:10:29;13.35;;;10.55;;
16288;SDS011;26089;43.538;5.250;2023-05-24T10:12:57;12.32;;;10.65;;
16288;SDS011;26089;43.538;5.250;2023-05-24T10:15:25;13.38;;;10.68;;
16288;SDS011;26089;43.538;5.250;2023-05-24T10:17:54;11.43;;;10.23;;
16288;SDS011;26089;43.538;5.250;2023-05-24T10:20:22;12.10;;;10.77;;
16288;SDS011;26089;43.538;5.250;2023-05-24T10:22:50;12.57;;;10.88;;
16288;SDS011;26089;43.538;5.250;2023-05-24T10:25:20;12.93;;;10.70;;
16288;SDS011;26089;43.538;5.250;2023-05-24T10:27:51;10.70;;;9.80;;
16288;SDS011;26089;43.538;5.250;2023-05-24T10:30:22;10.68;;;9.60;;
16288;SDS011;26089;43.538;5.250;2023-05-24T10:32:56;11.40;;;10.23;;
16288;SDS011;26089;43.538;5.250;2023-05-24T10:35:26;11.80;;;10.70;;
16288;SDS011;26089;43.538;5.250;2023-05-24T10:37:54;11.18;;;10.05;;
16288;SDS011;26089;43.538;5.250;2023-05-24T10:40:21;11.40;;;10.27;;
16288;SDS011;26089;43.538;5.250;2023-05-24T10:42:50;11.65;;;10.55;;
16288;SDS011;26089;43.538;5.250;2023-05-24T10:45:35;11.98;;;10.82;;
16288;SDS011;26089;43.538;5.250;2023-05-24T10:54:09;11.70;;;10.52;;
16288;SDS011;26089;43.538;5.250;2023-05-24T10:56:51;14.30;;;10.60;;
16288;SDS011;26089;43.538;5.250;2023-05-24T10:59:28;11.43;;;10.32;;
16288;SDS011;26089;43.538;5.250;2023-05-24T11:02:01;14.07;;;11.05;;
16288;SDS011;26089;43.538;5.250;2023-05-24T11:04:35;13.02;;;10.95;;
16288;SDS011;26089;43.538;5.250;2023-05-24T11:07:04;11.38;;;9.93;;
16288;SDS011;26089;43.538;5.250;2023-05-24T11:09:33;14.30;;;11.15;;
16288;SDS011;26089;43.538;5.250;2023-05-24T11:12:02;13.70;;;10.20;;
16288;SDS011;26089;43.538;5.250;2023-05-24T11:14:33;12.32;;;11.05;;
16288;SDS011;26089;43.538;5.250;2023-05-24T11:17:03;11.05;;;10.00;;
16288;SDS011;26089;43.538;5.250;2023-05-24T11:19:32;11.00;;;10.00;;
16288;SDS011;26089;43.538;5.250;2023-05-24T11:22:02;10.82;;;9.65;;
16288;SDS011;26089;43.538;5.250;2023-05-24T11:24:30;10.52;;;9.55;;
16288;SDS011;26089;43.538;5.250;2023-05-24T11:26:57;13.63;;;10.20;;
16288;SDS011;26089;43.538;5.250;2023-05-24T11:29:26;11.15;;;10.05;;
16288;SDS011;26089;43.538;5.250;2023-05-24T11:31:53;11.52;;;10.02;;
16288;SDS011;26089;43.538;5.250;2023-05-24T11:34:25;12.52;;;9.88;;
16288;SDS011;26089;43.538;5.250;2023-05-24T11:36:53;11.68;;;10.48;;
16288;SDS011;26089;43.538;5.250;2023-05-24T11:39:20;11.68;;;10.57;;
16288;SDS011;26089;43.538;5.250;2023-05-24T11:41:49;11.05;;;10.05;;
16288;SDS011;26089;43.538;5.250;2023-05-24T11:44:19;11.32;;;10.13;;
16288;SDS011;26089;43.538;5.250;2023-05-24T11:46:46;12.70;;;10.18;;
16288;SDS011;26089;43.538;5.250;2023-05-24T11:49:14;14.13;;;10.27;;
16288;SDS011;26089;43.538;5.250;2023-05-24T11:51:41;11.10;;;10.05;;
16288;SDS011;26089;43.538;5.250;2023-05-24T11:54:10;11.20;;;9.30;;
16288;SDS011;26089;43.538;5.250;2023-05-24T11:56:37;11.00;;;9.90;;
16288;SDS011;26089;43.538;5.250;2023-05-24T11:59:13;11.55;;;10.13;;
16288;SDS011;26089;43.538;5.250;2023-05-24T12:01:41;11.52;;;10.43;;
16288;SDS011;26089;43.538;5.250;2023-05-24T12:04:08;11.88;;;9.73;;
16288;SDS011;26089;43.538;5.250;2023-05-24T12:06:37;12.18;;;10.18;;
16288;SDS011;26089;43.538;5.250;2023-05-24T12:09:05;11.98;;;10.20;;
16288;SDS011;26089;43.538;5.250;2023-05-24T12:11:38;10.82;;;9.85;;
16288;SDS011;26089;43.538;5.250;2023-05-24T12:14:06;13.25;;;10.93;;
16288;SDS011;26089;43.538;5.250;2023-05-24T12:16:37;11.38;;;10.20;;
16288;SDS011;26089;43.538;5.250;2023-05-24T12:19:04;11.23;;;10.23;;
16288;SDS011;26089;43.538;5.250;2023-05-24T12:21:31;12.02;;;10.68;;
16288;SDS011;26089;43.538;5.250;2023-05-24T12:24:08;11.65;;;10.18;;
16288;SDS011;26089;43.538;5.250;2023-05-24T12:26:40;11.70;;;10.50;;
16288;SDS011;26089;43.538;5.250;2023-05-24T12:29:09;13.70;;;11.07;;
16288;SDS011;26089;43.538;5.250;2023-05-24T12:31:37;12.45;;;10.60;;
16288;SDS011;26089;43.538;5.250;2023-05-24T12:34:06;11.18;;;10.18;;
16288;SDS011;26089;43.538;5.250;2023-05-24T12:36:36;12.07;;;10.23;;
16288;SDS011;26089;43.538;5.250;2023-05-24T12:39:04;11.38;;;10.18;;
16288;SDS011;26089;43.538;5.250;2023-05-24T12:41:44;11.70;;;10.50;;
16288;SDS011;26089;43.538;5.250;2023-05-24T12:44:16;12.05;;;10.82;;
16288;SDS011;26089;43.538;5.250;2023-05-24T12:46:43;12.48;;;11.27;;
16288;SDS011;26089;43.538;5.250;2023-05-24T12:49:10;14.00;;;12.05;;
16288;SDS011;26089;43.538;5.250;2023-05-24T12:51:37;15.13;;;11.85;;
16288;SDS011;26089;43.538;5.250;2023-05-24T12:54:04;13.50;;;11.00;;
16288;SDS011;26089;43.538;5.250;2023-05-24T12:56:31;13.15;;;11.85;;
16288;SDS011;26089;43.538;5.250;2023-05-24T12:58:59;14.23;;;12.80;;
16288;SDS011;26089;43.538;5.250;2023-05-24T13:01:26;12.87;;;11.60;;
16288;SDS011;26089;43.538;5.250;2023-05-24T13:03:53;13.00;;;11.70;;
16288;SDS011;26089;43.538;5.250;2023-05-24T13:06:20;14.63;;;12.43;;
16288;SDS011;26089;43.538;5.250;2023-05-24T13:08:47;14.47;;;12.67;;
16288;SDS011;26089;43.538;5.250;2023-05-24T13:11:14;13.80;;;12.40;;
16288;SDS011;26089;43.538;5.250;2023-05-24T13:13:41;13.83;;;12.37;;
16288;SDS011;26089;43.538;5.250;2023-05-24T13:16:11;13.33;;;12.00;;
16288;SDS011;26089;43.538;5.250;2023-05-24T13:18:38;14.53;;;12.03;;
16288;SDS011;26089;43.538;5.250;2023-05-24T13:21:05;14.20;;;12.80;;
16288;SDS011;26089;43.538;5.250;2023-05-24T13:23:32;14.50;;;12.73;;
16288;SDS011;26089;43.538;5.250;2023-05-24T13:26:01;13.30;;;11.93;;
16288;SDS011;26089;43.538;5.250;2023-05-24T13:28:28;13.70;;;11.20;;
16288;SDS011;26089;43.538;5.250;2023-05-24T13:30:56;13.17;;;11.83;;
16288;SDS011;26089;43.538;5.250;2023-05-24T13:33:24;13.97;;;12.43;;
16288;SDS011;26089;43.538;5.250;2023-05-24T13:35:51;15.23;;;11.87;;
16288;SDS011;26089;43.538;5.250;2023-05-24T13:38:19;12.43;;;11.13;;
16288;SDS011;26089;43.538;5.250;2023-05-24T13:40:46;14.00;;;11.47;;
16288;SDS011;26089;43.538;5.250;2023-05-24T13:43:13;13.10;;;11.13;;
16288;SDS011;26089;43.538;5.250;2023-05-24T13:45:40;14.17;;;11.50;;
16288;SDS011;26089;43.538;5.250;2023-05-24T13:48:07;14.20;;;11.97;;
16288;SDS011;26089;43.538;5.250;2023-05-24T13:50:35;13.33;;;11.17;;
16288;SDS011;26089;43.538;5.250;2023-05-24T13:53:03;13.77;;;12.33;;
16288;SDS011;26089;43.538;5.250;2023-05-24T13:55:31;17.53;;;12.10;;
16288;SDS011;26089;43.538;5.250;2023-05-24T13:58:00;14.27;;;12.13;;
16288;SDS011;26089;43.538;5.250;2023-05-24T14:00:28;15.60;;;12.10;;
16288;SDS011;26089;43.538;5.250;2023-05-24T14:02:57;15.73;;;11.80;;
16288;SDS011;26089;43.538;5.250;2023-05-24T14:05:24;14.13;;;12.73;;
16288;SDS011;26089;43.538;5.250;2023-05-24T14:07:54;14.03;;;11.57;;
16288;SDS011;26089;43.538;5.250;2023-05-24T14:10:22;15.67;;;12.10;;
16288;SDS011;26089;43.538;5.250;2023-05-24T14:12:49;14.80;;;11.43;;
16288;SDS011;26089;43.538;5.250;2023-05-24T14:15:16;14.93;;;12.43;;
16288;SDS011;26089;43.538;5.250;2023-05-24T14:17:43;15.77;;;11.83;;
16288;SDS011;26089;43.538;5.250;2023-05-24T14:20:10;13.60;;;11.30;;
16288;SDS011;26089;43.538;5.250;2023-05-24T14:22:37;14.07;;;11.87;;
16288;SDS011;26089;43.538;5.250;2023-05-24T14:25:06;15.47;;;11.70;;
16288;SDS011;26089;43.538;5.250;2023-05-24T14:27:34;13.00;;;11.67;;
16288;SDS011;26089;43.538;5.250;2023-05-24T14:30:01;13.77;;;11.63;;
16288;SDS011;26089;43.538;5.250;2023-05-24T14:32:28;14.33;;;11.50;;
16288;SDS011;26089;43.538;5.250;2023-05-24T14:34:55;12.87;;;11.53;;
16288;SDS011;26089;43.538;5.250;2023-05-24T14:37:22;13.20;;;11.70;;
16288;SDS011;26089;43.538;5.250;2023-05-24T14:39:49;12.97;;;11.67;;
16288;SDS011;26089;43.538;5.250;2023-05-24T14:42:17;14.00;;;11.97;;